sensor_id;sensor_type;location;lat;lon;timestamp;pressure;altitude;pressure_sealevel;temperature;humidity
64243;BME280;50573;51.512;5.386;2023-01-01T00:04:11;100609.06;;;16.57;55.52
64243;BME280;50573;51.512;5.386;2023-01-01T00:14:14;100626.53;;;16.54;54.44
64243;BME280;50573;51.512;5.386;2023-01-01T00:24:18;100628.16;;;16.46;54.41
64243;BME280;50573;51.512;5.386;2023-01-01T00:34:22;100629.00;;;16.52;54.60
64243;BME280;50573;51.512;5.386;2023-01-01T00:44:26;100617.44;;;16.48;55.81
64243;BME280;50573;51.512;5.386;2023-01-01T00:54:29;100614.69;;;16.48;54.67
64243;BME280;50573;51.512;5.386;2023-01-01T01:04:33;100647.69;;;16.48;54.65
64243;BME280;50573;51.512;5.386;2023-01-01T01:14:36;100626.53;;;16.40;55.33
64243;BME280;50573;51.512;5.386;2023-01-01T01:24:41;100630.59;;;16.30;55.50
64243;BME280;50573;51.512;5.386;2023-01-01T01:34:44;100653.44;;;16.21;54.96
64243;BME280;50573;51.512;5.386;2023-01-01T01:44:51;100649.66;;;16.04;55.40
64243;BME280;50573;51.512;5.386;2023-01-01T01:54:56;100670.19;;;15.94;55.13
64243;BME280;50573;51.512;5.386;2023-01-01T02:05:01;100675.88;;;15.91;55.83
64243;BME280;50573;51.512;5.386;2023-01-01T02:15:06;100669.88;;;15.78;55.58
64243;BME280;50573;51.512;5.386;2023-01-01T02:25:17;100681.53;;;15.73;55.87
64243;BME280;50573;51.512;5.386;2023-01-01T02:35:27;100688.91;;;15.67;56.08
64243;BME280;50573;51.512;5.386;2023-01-01T02:45:39;100692.59;;;15.64;55.57
64243;BME280;50573;51.512;5.386;2023-01-01T02:55:51;100705.03;;;15.50;56.86
64243;BME280;50573;51.512;5.386;2023-01-01T03:06:05;100699.72;;;15.47;57.23
64243;BME280;50573;51.512;5.386;2023-01-01T03:16:30;100716.38;;;15.43;58.18
64243;BME280;50573;51.512;5.386;2023-01-01T03:26:38;100712.88;;;15.43;58.48
64243;BME280;50573;51.512;5.386;2023-01-01T03:36:46;100710.28;;;15.39;58.52
64243;BME280;50573;51.512;5.386;2023-01-01T03:46:50;100734.69;;;15.37;58.92
64243;BME280;50573;51.512;5.386;2023-01-01T03:57:00;100733.81;;;15.31;59.61
64243;BME280;50573;51.512;5.386;2023-01-01T04:07:07;100762.66;;;15.26;60.33
64243;BME280;50573;51.512;5.386;2023-01-01T04:17:17;100775.31;;;15.24;61.12
64243;BME280;50573;51.512;5.386;2023-01-01T04:27:20;100756.09;;;15.24;60.50
64243;BME280;50573;51.512;5.386;2023-01-01T04:37:25;100768.78;;;15.12;61.73
64243;BME280;50573;51.512;5.386;2023-01-01T04:47:28;100787.88;;;15.07;62.84
64243;BME280;50573;51.512;5.386;2023-01-01T04:57:32;100782.72;;;15.00;63.51
64243;BME280;50573;51.512;5.386;2023-01-01T05:07:35;100817.44;;;15.03;64.07
64243;BME280;50573;51.512;5.386;2023-01-01T05:17:40;100825.09;;;14.99;64.38
64243;BME280;50573;51.512;5.386;2023-01-01T05:27:43;100858.03;;;14.90;64.85
64243;BME280;50573;51.512;5.386;2023-01-01T05:37:47;100866.44;;;14.86;65.58
64243;BME280;50573;51.512;5.386;2023-01-01T05:47:52;100890.97;;;14.81;66.09
64243;BME280;50573;51.512;5.386;2023-01-01T05:57:56;100892.34;;;14.67;66.69
64243;BME280;50573;51.512;5.386;2023-01-01T06:07:59;100922.94;;;14.66;67.39
64243;BME280;50573;51.512;5.386;2023-01-01T06:18:04;100934.69;;;14.66;67.49
64243;BME280;50573;51.512;5.386;2023-01-01T06:28:06;100989.34;;;14.52;69.98
64243;BME280;50573;51.512;5.386;2023-01-01T06:38:11;101019.25;;;13.36;82.27
64243;BME280;50573;51.512;5.386;2023-01-01T06:48:14;101026.00;;;12.76;88.40
64243;BME280;50573;51.512;5.386;2023-01-01T06:58:18;101048.66;;;12.51;92.50
64243;BME280;50573;51.512;5.386;2023-01-01T07:08:21;101057.97;;;12.29;95.73
64243;BME280;50573;51.512;5.386;2023-01-01T07:18:26;101072.94;;;12.12;95.53
64243;BME280;50573;51.512;5.386;2023-01-01T07:28:29;101071.19;;;12.05;89.83
64243;BME280;50573;51.512;5.386;2023-01-01T07:38:33;101091.28;;;11.99;91.18
64243;BME280;50573;51.512;5.386;2023-01-01T07:48:36;101102.59;;;11.85;94.87
64243;BME280;50573;51.512;5.386;2023-01-01T07:58:42;101126.25;;;11.75;97.71
64243;BME280;50573;51.512;5.386;2023-01-01T08:08:45;101181.81;;;11.69;100.00
64243;BME280;50573;51.512;5.386;2023-01-01T08:18:49;101189.16;;;11.56;100.00
64243;BME280;50573;51.512;5.386;2023-01-01T08:28:53;101178.22;;;11.56;100.00
64243;BME280;50573;51.512;5.386;2023-01-01T08:38:59;101185.22;;;11.57;100.00
64243;BME280;50573;51.512;5.386;2023-01-01T08:49:02;101204.03;;;11.51;100.00
64243;BME280;50573;51.512;5.386;2023-01-01T08:59:07;101232.25;;;11.61;100.00
64243;BME280;50573;51.512;5.386;2023-01-01T09:09:10;101211.19;;;11.61;100.00
64243;BME280;50573;51.512;5.386;2023-01-01T09:19:14;101237.31;;;11.62;100.00
64243;BME280;50573;51.512;5.386;2023-01-01T09:29:17;101222.75;;;11.69;100.00
64243;BME280;50573;51.512;5.386;2023-01-01T09:39:22;101247.13;;;11.76;100.00
64243;BME280;50573;51.512;5.386;2023-01-01T09:49:30;101245.75;;;11.52;100.00
64243;BME280;50573;51.512;5.386;2023-01-01T09:59:37;101248.75;;;11.41;100.00
64243;BME280;50573;51.512;5.386;2023-01-01T10:09:45;101237.91;;;11.38;100.00
64243;BME280;50573;51.512;5.386;2023-01-01T10:19:55;101236.03;;;11.51;100.00
64243;BME280;50573;51.512;5.386;2023-01-01T10:30:01;101241.44;;;11.70;100.00
64243;BME280;50573;51.512;5.386;2023-01-01T10:40:13;101242.06;;;11.90;99.70
64243;BME280;50573;51.512;5.386;2023-01-01T10:50:19;101244.47;;;12.17;97.14
64243;BME280;50573;51.512;5.386;2023-01-01T11:00:25;101237.97;;;12.39;95.10
64243;BME280;50573;51.512;5.386;2023-01-01T11:10:29;101248.31;;;12.73;92.47
64243;BME280;50573;51.512;5.386;2023-01-01T11:20:33;101270.22;;;12.98;90.55
64243;BME280;50573;51.512;5.386;2023-01-01T11:30:37;101271.88;;;13.21;87.51
64243;BME280;50573;51.512;5.386;2023-01-01T11:40:47;101270.88;;;13.40;85.42
64243;BME280;50573;51.512;5.386;2023-01-01T11:50:52;101247.44;;;13.51;84.91
64243;BME280;50573;51.512;5.386;2023-01-01T12:01:00;101262.59;;;13.65;83.44
64243;BME280;50573;51.512;5.386;2023-01-01T12:11:11;101266.66;;;13.73;81.85
64243;BME280;50573;51.512;5.386;2023-01-01T12:21:23;101251.09;;;13.82;80.40
64243;BME280;50573;51.512;5.386;2023-01-01T12:31:32;101245.19;;;13.71;80.15
64243;BME280;50573;51.512;5.386;2023-01-01T12:41:48;101248.34;;;13.70;79.06
64243;BME280;50573;51.512;5.386;2023-01-01T12:52:13;101227.00;;;13.77;76.78
64243;BME280;50573;51.512;5.386;2023-01-01T13:02:23;101241.09;;;13.88;76.83
64243;BME280;50573;51.512;5.386;2023-01-01T13:12:28;101238.69;;;13.90;75.77
64243;BME280;50573;51.512;5.386;2023-01-01T13:22:38;101246.00;;;13.93;76.82
64243;BME280;50573;51.512;5.386;2023-01-01T13:33:15;101236.69;;;13.91;75.77
64243;BME280;50573;51.512;5.386;2023-01-01T13:43:29;101231.84;;;13.95;76.07
64243;BME280;50573;51.512;5.386;2023-01-01T13:53:59;101229.75;;;13.65;76.87
64243;BME280;50573;51.512;5.386;2023-01-01T14:04:27;101236.44;;;13.64;77.41
64243;BME280;50573;51.512;5.386;2023-01-01T14:14:31;101252.03;;;13.54;78.00
64243;BME280;50573;51.512;5.386;2023-01-01T14:24:46;101259.72;;;13.47;78.64
64243;BME280;50573;51.512;5.386;2023-01-01T14:34:58;101249.09;;;13.36;78.35
64243;BME280;50573;51.512;5.386;2023-01-01T14:45:04;101243.94;;;13.38;78.78
64243;BME280;50573;51.512;5.386;2023-01-01T14:55:15;101235.63;;;13.29;79.18
64243;BME280;50573;51.512;5.386;2023-01-01T15:05:29;101240.13;;;13.23;80.38
64243;BME280;50573;51.512;5.386;2023-01-01T15:15:39;101258.19;;;13.21;80.79
64243;BME280;50573;51.512;5.386;2023-01-01T15:25:43;101239.25;;;13.14;81.16
64243;BME280;50573;51.512;5.386;2023-01-01T15:35:47;101248.88;;;13.18;80.92
64243;BME280;50573;51.512;5.386;2023-01-01T15:45:54;101254.81;;;13.17;81.53
64243;BME280;50573;51.512;5.386;2023-01-01T15:56:01;101262.81;;;13.11;81.29
64243;BME280;50573;51.512;5.386;2023-01-01T16:06:07;101249.84;;;12.99;82.67
64243;BME280;50573;51.512;5.386;2023-01-01T16:16:23;101247.31;;;12.80;85.02
64243;BME280;50573;51.512;5.386;2023-01-01T16:26:28;101244.78;;;12.60;88.04
64243;BME280;50573;51.512;5.386;2023-01-01T16:36:31;101237.00;;;12.46;90.38
64243;BME280;50573;51.512;5.386;2023-01-01T16:46:36;101214.44;;;12.29;92.16
64243;BME280;50573;51.512;5.386;2023-01-01T16:56:39;101212.03;;;12.19;93.75
64243;BME280;50573;51.512;5.386;2023-01-01T17:06:44;101208.28;;;12.13;94.61
64243;BME280;50573;51.512;5.386;2023-01-01T17:16:47;101194.94;;;12.02;97.52
64243;BME280;50573;51.512;5.386;2023-01-01T17:26:54;101186.53;;;11.81;100.00
64243;BME280;50573;51.512;5.386;2023-01-01T17:36:57;101184.53;;;11.69;100.00
64243;BME280;50573;51.512;5.386;2023-01-01T17:47:01;101179.66;;;11.60;100.00
64243;BME280;50573;51.512;5.386;2023-01-01T17:57:04;101183.78;;;11.52;100.00
64243;BME280;50573;51.512;5.386;2023-01-01T18:07:09;101164.50;;;11.43;100.00
64243;BME280;50573;51.512;5.386;2023-01-01T18:17:12;101149.44;;;11.39;100.00
64243;BME280;50573;51.512;5.386;2023-01-01T18:27:16;101136.13;;;11.41;100.00
64243;BME280;50573;51.512;5.386;2023-01-01T18:37:19;101116.03;;;11.35;100.00
64243;BME280;50573;51.512;5.386;2023-01-01T18:47:24;101116.78;;;11.35;100.00
64243;BME280;50573;51.512;5.386;2023-01-01T18:57:28;101094.22;;;11.35;100.00
64243;BME280;50573;51.512;5.386;2023-01-01T19:07:32;101060.38;;;11.32;100.00
64243;BME280;50573;51.512;5.386;2023-01-01T19:17:35;101054.34;;;11.25;100.00
64243;BME280;50573;51.512;5.386;2023-01-01T19:27:39;101037.66;;;11.23;100.00
64243;BME280;50573;51.512;5.386;2023-01-01T19:37:43;101022.81;;;11.23;100.00
64243;BME280;50573;51.512;5.386;2023-01-01T19:47:47;101013.13;;;11.23;100.00
64243;BME280;50573;51.512;5.386;2023-01-01T19:57:50;100989.66;;;11.25;100.00
64243;BME280;50573;51.512;5.386;2023-01-01T20:07:55;100985.41;;;11.24;100.00
64243;BME280;50573;51.512;5.386;2023-01-01T20:17:58;100981.81;;;11.27;100.00
64243;BME280;50573;51.512;5.386;2023-01-01T20:28:02;100966.56;;;11.30;100.00
64243;BME280;50573;51.512;5.386;2023-01-01T20:38:23;100977.91;;;11.28;100.00
64243;BME280;50573;51.512;5.386;2023-01-01T20:48:27;100960.91;;;11.37;100.00
64243;BME280;50573;51.512;5.386;2023-01-01T20:58:30;100952.63;;;11.40;100.00
64243;BME280;50573;51.512;5.386;2023-01-01T21:08:35;100932.09;;;11.36;100.00
64243;BME280;50573;51.512;5.386;2023-01-01T21:18:39;100916.16;;;11.34;100.00
64243;BME280;50573;51.512;5.386;2023-01-01T21:28:44;100892.94;;;11.30;100.00
64243;BME280;50573;51.512;5.386;2023-01-01T21:38:48;100870.88;;;11.24;100.00
64243;BME280;50573;51.512;5.386;2023-01-01T21:48:57;100875.03;;;11.29;100.00
64243;BME280;50573;51.512;5.386;2023-01-01T21:59:09;100866.84;;;11.29;100.00
64243;BME280;50573;51.512;5.386;2023-01-01T22:09:33;100861.63;;;11.34;100.00
64243;BME280;50573;51.512;5.386;2023-01-01T22:19:36;100851.50;;;11.35;100.00
64243;BME280;50573;51.512;5.386;2023-01-01T22:29:41;100845.59;;;11.36;100.00
64243;BME280;50573;51.512;5.386;2023-01-01T22:39:45;100832.59;;;11.40;100.00
64243;BME280;50573;51.512;5.386;2023-01-01T22:49:49;100837.06;;;11.47;100.00
64243;BME280;50573;51.512;5.386;2023-01-01T22:59:53;100831.63;;;11.47;100.00
64243;BME280;50573;51.512;5.386;2023-01-01T23:09:58;100813.06;;;11.42;100.00
64243;BME280;50573;51.512;5.386;2023-01-01T23:20:01;100789.19;;;11.46;100.00
64243;BME280;50573;51.512;5.386;2023-01-01T23:30:07;100788.19;;;11.65;100.00
64243;BME280;50573;51.512;5.386;2023-01-01T23:40:11;100784.22;;;11.91;100.00
64243;BME280;50573;51.512;5.386;2023-01-01T23:50:16;100766.53;;;12.17;100.00
